MMNL/NLD METAR and TAF weather

Enter ICAO airport designator
Station Type Date Time Source
MMNL METAR 2019/06/19 00:40 UTC NOAA

MMNL 190040Z 14008KT 10SM BKN200 37/20 A2980 RMK 8/002 ISOL CU


Station Type Date Time Source
MMNL Decoded METAR 2019/06/19 00:40 UTC NOAA

Nuevo Laredo International , Mexico (MMNL) 27-26N 099-34W
Jun 18, 2019 - 08:40 PM EDT / 2019.06.19 0040 UTC
Wind: from the SE (140 degrees) at 9 MPH (8 KT):0
Visibility: 10 mile(s):0
Sky conditions: mostly cloudy
Temperature: 98 F (37 C)
Heat index: 102.9 F (39.4 C):1
Dew Point: 68 F (20 C)
Relative Humidity: 37%
Pressure (altimeter): 29.8 in. Hg (1009 hPa)
ob: MMNL 190040Z 14008KT 10SM BKN200 37/20 A2980 RMK 8/002 ISOL CU
cycle: 0

Station Type Date Time Source
MMNL TAF 2019/06/18 18:27 UTC NOAA

TAF MMNL 181720Z 1818/1918 14012KT P6SM SCT020
FM190300 00000KT P6SM SCT040
FM191200 12010KT 4SM HZ OVC015
FM191600 12010KT P6SM SCT015

Example: see airport list